--

Current Conditions

Updated: 28-Jan-2020 7:50 PM  
Summary / Temperature Wind Rain






Feels like: 50°F

1-hour difference
1.8°F 1.8°F colder than last hour.

24-hour difference
0.4°F0.4°F warmer than yesterday at this time.

  Today Yesterday
High: 61.9°F
2:19 PM
62.8°F
2:07 PM
Low: 38.5°F
4:51 AM
41.4°F
3:23 AM
Calm WNW
0.0
Gust:  0.0 mph
0 Beaufort - Calm

Today: 7.0 - 1:09 PM
Month: 19.6 mph - Jan 17
Rain Today: 0.00 in
Current Rate (/hr): 0.000 in
Max Rate (/hr):
Rain Yesterday: 0.01 in
Storm Rain: 0.00 in
This Month: 0.30 in
Season Total: 4.25 in
Last Rain Event: 1 day ago
Humidity / Barometer Sun / Moon
Humidity: 87 Increased 4.0% in the last hour.
Dew Point: 46.4°F Decreased 0.5°F in the last hour.
Barometer: 30.255 inHg  
Baro Trend: Steady
Sunrise: 7:00 AM
Sunset: 5:18 PM
Moonrise: 9:54 AM
Moonset: 8:59 PM
Sky Conditions UV Index
Summary: Clear
Visibility: 10 miles
Clouds: None
KVIS - 3:56 AM PST
Current: 0.0  None 
Wednesday: 2.5  Low 
Thursday: 2.6  Low 
Air Quality Fire Danger
PM2.5 45 μg/m3
Ozone 9 ppb
4:20 AM PST
Current: 0  Low 

Local Alerts Local Forecast
Local NWS Alerts
Today

Mostly
Cloudy
High 55
Tonight

Mostly
Clear
Low 40
Thu

Mostly
Sunny
High 61
Thu night

Partly
Cloudy
Low 42
Fri

Mostly
Sunny
High 67
Fri night

Mostly
Clear
Low 45
Sat

Mostly
Sunny
High 70

Local Radar Local Satellite Neighborhood Cam Sky Cam
Local Radar Local Satellite Neighborhood Cam Sky Cam


Nearby Airport Stations

KVIS - Visalia, California, USA
Distance from station: W 14mi, 23km
Updated: Wed, 29-Jan-2020 3:56am PST
Clear
Clear
 Wind from NW
Wind: NW 5 mph , 7 km/h
Temperature: 46°F , 8°C
Wind Chill: 44°F , 7°C
Dew Point: 46°F , 8°C
Humidity: 100%
Barometer: 30.24 inHg , 1024 hPa
Clouds: Clear
Visibility: 10 miles , 16 km
2020/01/29 11:56 KVIS 291156Z AUTO 32004KT 10SM CLR 08/08 A3024 RMK AO2 SLP250 T00780078 10100 20072 50000
KPTV - Porterville, California, USA
Distance from station: SSE 19mi, 31km
Updated: Wed, 29-Jan-2020 3:56am PST
Mist, Overcast
Mist, Overcast
 Wind from calm
Wind: Calm
Temperature: 46°F , 8°C
Dew Point: 46°F , 8°C
Humidity: 100%
Barometer: 30.24 inHg , 1024 hPa
Summary: Mist
Clouds: Overcast
Visibility: 5 miles , 8 km
Cloud details: Overcast 2900 ft
2020/01/29 11:56 KPTV 291156Z AUTO 00000KT 5SM BR OVC029 08/08 A3024 RMK AO2 SLP241 T00830078 10094 20061 58004

Metar display script from Saratoga-Weather.org



Visitor Map